createdAt,value
2018-11-20T10:00:50.481Z,1.015
2018-11-20T10:02:49.910Z,0.530
2018-11-20T10:04:50.457Z,0.131
2018-11-20T10:06:50.054Z,0.148
2018-11-20T10:08:50.126Z,0.239
2018-11-20T10:10:50.515Z,0.200
2018-11-20T10:12:49.830Z,0.114
2018-11-20T10:14:51.163Z,0.177
2018-11-20T10:16:50.181Z,0.553
2018-11-20T10:18:50.399Z,0.570
2018-11-20T10:20:51.010Z,0.570
2018-11-20T10:22:50.346Z,0.832
2018-11-20T10:24:50.748Z,0.747
2018-11-20T10:26:50.096Z,0.633
2018-11-20T10:28:50.689Z,0.627
2018-11-20T10:30:49.954Z,0.599
2018-11-20T10:32:50.115Z,0.405
2018-11-20T10:34:51.404Z,0.650
2018-11-20T10:36:50.276Z,0.650
2018-11-20T10:38:50.527Z,0.610
2018-11-20T10:40:50.668Z,0.599
2018-11-20T10:42:49.891Z,0.844
2018-11-20T10:44:50.077Z,0.684
2018-11-20T10:46:50.472Z,0.872
2018-11-20T10:48:50.732Z,0.564
2018-11-20T10:50:49.976Z,0.593
2018-11-20T10:52:50.090Z,0.655
2018-11-20T10:54:50.108Z,0.667
2018-11-20T10:56:50.438Z,0.633
2018-11-20T10:58:50.071Z,0.621
2018-11-20T11:00:50.188Z,0.678
2018-11-20T11:02:50.405Z,0.678
2018-11-20T11:04:50.352Z,0.678
2018-11-20T11:06:51.814Z,0.650
2018-11-20T11:08:50.136Z,0.616
2018-11-20T11:10:50.438Z,0.627
2018-11-20T11:12:50.619Z,0.747
2018-11-20T11:14:50.307Z,0.684
2018-11-20T11:16:50.634Z,0.405
2018-11-20T11:18:49.961Z,0.576
2018-11-20T11:20:50.406Z,0.638
2018-11-20T11:22:49.844Z,0.655
2018-11-20T11:24:50.061Z,0.593
2018-11-20T11:26:50.569Z,0.536
2018-11-20T11:28:51.957Z,0.536
2018-11-20T11:30:50.176Z,0.587
2018-11-20T11:32:50.266Z,0.559
2018-11-20T11:34:50.047Z,0.650
2018-11-20T11:36:50.065Z,0.650
2018-11-20T11:38:50.236Z,0.581
2018-11-20T11:40:50.151Z,0.530
2018-11-20T11:42:50.367Z,0.576
2018-11-20T11:44:49.965Z,0.570
2018-11-20T11:46:50.364Z,0.604
2018-11-20T11:48:50.556Z,0.667
2018-11-20T11:50:50.387Z,0.439
2018-11-20T11:52:50.059Z,0.587
2018-11-20T11:54:50.708Z,0.587
2018-11-20T11:56:50.031Z,0.707
2018-11-20T11:58:50.132Z,0.701
2018-11-20T12:00:50.132Z,0.604
2018-11-20T12:04:50.249Z,0.536
2018-11-20T12:06:50.501Z,0.673
2018-11-20T12:08:50.205Z,0.884
2018-11-20T12:10:50.698Z,0.604
2018-11-20T12:12:49.938Z,0.502
